sensor_id;sensor_type;location;lat;lon;timestamp;P1;durP1;ratioP1;P2;durP2;ratioP2
28760;SDS011;15917;50.014;8.352;2024-03-07T00:02:15;60.78;;;28.08;;
28760;SDS011;15917;50.014;8.352;2024-03-07T00:04:42;52.92;;;26.25;;
28760;SDS011;15917;50.014;8.352;2024-03-07T00:07:08;55.63;;;27.10;;
28760;SDS011;15917;50.014;8.352;2024-03-07T00:09:34;51.60;;;26.45;;
28760;SDS011;15917;50.014;8.352;2024-03-07T00:12:04;54.05;;;25.58;;
28760;SDS011;15917;50.014;8.352;2024-03-07T00:14:33;55.95;;;27.75;;
28760;SDS011;15917;50.014;8.352;2024-03-07T00:17:00;57.92;;;26.13;;
28760;SDS011;15917;50.014;8.352;2024-03-07T00:19:26;58.53;;;25.73;;
28760;SDS011;15917;50.014;8.352;2024-03-07T00:21:57;56.85;;;25.98;;
28760;SDS011;15917;50.014;8.352;2024-03-07T00:24:23;55.10;;;25.73;;
28760;SDS011;15917;50.014;8.352;2024-03-07T00:26:49;55.58;;;26.83;;
28760;SDS011;15917;50.014;8.352;2024-03-07T00:29:16;55.67;;;26.25;;
28760;SDS011;15917;50.014;8.352;2024-03-07T00:31:45;51.67;;;25.95;;
28760;SDS011;15917;50.014;8.352;2024-03-07T00:34:12;55.20;;;27.60;;
28760;SDS011;15917;50.014;8.352;2024-03-07T00:36:39;61.58;;;27.75;;
28760;SDS011;15917;50.014;8.352;2024-03-07T00:39:05;55.70;;;27.63;;
28760;SDS011;15917;50.014;8.352;2024-03-07T00:43:59;52.22;;;25.85;;
28760;SDS011;15917;50.014;8.352;2024-03-07T00:46:24;59.80;;;28.05;;
28760;SDS011;15917;50.014;8.352;2024-03-07T00:48:50;66.57;;;27.90;;
28760;SDS011;15917;50.014;8.352;2024-03-07T00:51:16;58.83;;;27.60;;
28760;SDS011;15917;50.014;8.352;2024-03-07T00:53:41;58.95;;;28.15;;
28760;SDS011;15917;50.014;8.352;2024-03-07T00:56:07;65.68;;;28.80;;
28760;SDS011;15917;50.014;8.352;2024-03-07T00:58:32;71.03;;;30.15;;
28760;SDS011;15917;50.014;8.352;2024-03-07T01:00:59;65.50;;;28.75;;
28760;SDS011;15917;50.014;8.352;2024-03-07T01:03:25;70.70;;;29.05;;
28760;SDS011;15917;50.014;8.352;2024-03-07T01:05:52;69.50;;;30.48;;
28760;SDS011;15917;50.014;8.352;2024-03-07T01:08:18;63.33;;;29.67;;
28760;SDS011;15917;50.014;8.352;2024-03-07T01:10:43;64.72;;;29.52;;
28760;SDS011;15917;50.014;8.352;2024-03-07T01:13:09;66.78;;;30.55;;
28760;SDS011;15917;50.014;8.352;2024-03-07T01:15:43;65.40;;;28.83;;
28760;SDS011;15917;50.014;8.352;2024-03-07T01:18:10;68.28;;;32.00;;
28760;SDS011;15917;50.014;8.352;2024-03-07T01:20:36;66.80;;;31.48;;
28760;SDS011;15917;50.014;8.352;2024-03-07T01:23:02;66.95;;;31.45;;
28760;SDS011;15917;50.014;8.352;2024-03-07T01:25:27;70.90;;;34.28;;
28760;SDS011;15917;50.014;8.352;2024-03-07T01:27:53;72.97;;;32.65;;
28760;SDS011;15917;50.014;8.352;2024-03-07T01:30:20;68.47;;;31.35;;
28760;SDS011;15917;50.014;8.352;2024-03-07T01:35:13;64.93;;;29.73;;
28760;SDS011;15917;50.014;8.352;2024-03-07T01:37:39;75.35;;;32.83;;
28760;SDS011;15917;50.014;8.352;2024-03-07T01:40:05;74.20;;;32.60;;
28760;SDS011;15917;50.014;8.352;2024-03-07T01:42:31;63.65;;;31.30;;
28760;SDS011;15917;50.014;8.352;2024-03-07T01:44:57;67.50;;;32.63;;
28760;SDS011;15917;50.014;8.352;2024-03-07T01:47:24;67.40;;;31.35;;
28760;SDS011;15917;50.014;8.352;2024-03-07T01:49:49;62.47;;;31.77;;
28760;SDS011;15917;50.014;8.352;2024-03-07T01:52:15;63.80;;;30.10;;
28760;SDS011;15917;50.014;8.352;2024-03-07T01:54:41;70.65;;;31.20;;
28760;SDS011;15917;50.014;8.352;2024-03-07T01:57:07;64.50;;;30.50;;
28760;SDS011;15917;50.014;8.352;2024-03-07T01:59:33;66.28;;;30.38;;
28760;SDS011;15917;50.014;8.352;2024-03-07T02:02:01;66.53;;;30.90;;
28760;SDS011;15917;50.014;8.352;2024-03-07T02:04:27;75.72;;;29.98;;
28760;SDS011;15917;50.014;8.352;2024-03-07T02:06:53;63.95;;;30.00;;
28760;SDS011;15917;50.014;8.352;2024-03-07T02:09:20;69.43;;;31.70;;
28760;SDS011;15917;50.014;8.352;2024-03-07T02:11:49;65.43;;;32.85;;
28760;SDS011;15917;50.014;8.352;2024-03-07T02:14:14;61.55;;;30.40;;
28760;SDS011;15917;50.014;8.352;2024-03-07T02:16:40;62.00;;;28.80;;
28760;SDS011;15917;50.014;8.352;2024-03-07T02:19:06;60.35;;;28.35;;
28760;SDS011;15917;50.014;8.352;2024-03-07T02:21:35;62.00;;;28.60;;
28760;SDS011;15917;50.014;8.352;2024-03-07T02:24:01;61.72;;;28.63;;
28760;SDS011;15917;50.014;8.352;2024-03-07T02:26:27;64.78;;;29.33;;
28760;SDS011;15917;50.014;8.352;2024-03-07T02:28:52;58.58;;;28.10;;
28760;SDS011;15917;50.014;8.352;2024-03-07T02:31:18;64.53;;;28.75;;
28760;SDS011;15917;50.014;8.352;2024-03-07T02:33:44;59.00;;;29.45;;
28760;SDS011;15917;50.014;8.352;2024-03-07T02:36:09;60.13;;;28.48;;
28760;SDS011;15917;50.014;8.352;2024-03-07T02:38:35;58.22;;;27.23;;
28760;SDS011;15917;50.014;8.352;2024-03-07T02:41:00;58.42;;;27.10;;
28760;SDS011;15917;50.014;8.352;2024-03-07T02:43:26;62.08;;;28.27;;
28760;SDS011;15917;50.014;8.352;2024-03-07T02:45:52;57.83;;;26.45;;
28760;SDS011;15917;50.014;8.352;2024-03-07T02:48:18;64.20;;;27.08;;
28760;SDS011;15917;50.014;8.352;2024-03-07T02:50:43;48.83;;;25.63;;
28760;SDS011;15917;50.014;8.352;2024-03-07T02:53:09;60.17;;;26.02;;
28760;SDS011;15917;50.014;8.352;2024-03-07T02:55:35;55.58;;;26.58;;
28760;SDS011;15917;50.014;8.352;2024-03-07T02:58:00;58.90;;;25.95;;
28760;SDS011;15917;50.014;8.352;2024-03-07T03:00:26;52.90;;;25.63;;
28760;SDS011;15917;50.014;8.352;2024-03-07T03:02:54;54.40;;;25.58;;
28760;SDS011;15917;50.014;8.352;2024-03-07T03:05:21;49.92;;;23.63;;
28760;SDS011;15917;50.014;8.352;2024-03-07T03:07:47;56.88;;;24.92;;
28760;SDS011;15917;50.014;8.352;2024-03-07T03:10:22;56.90;;;25.08;;
28760;SDS011;15917;50.014;8.352;2024-03-07T03:12:54;51.25;;;24.60;;
28760;SDS011;15917;50.014;8.352;2024-03-07T03:15:23;51.75;;;24.27;;
28760;SDS011;15917;50.014;8.352;2024-03-07T03:17:49;50.88;;;23.77;;
28760;SDS011;15917;50.014;8.352;2024-03-07T03:20:15;49.72;;;23.92;;
28760;SDS011;15917;50.014;8.352;2024-03-07T03:22:53;51.60;;;24.58;;
28760;SDS011;15917;50.014;8.352;2024-03-07T03:25:20;47.58;;;23.95;;
28760;SDS011;15917;50.014;8.352;2024-03-07T03:27:49;54.83;;;23.77;;
28760;SDS011;15917;50.014;8.352;2024-03-07T03:30:15;46.17;;;21.88;;
28760;SDS011;15917;50.014;8.352;2024-03-07T03:32:44;51.30;;;23.00;;
28760;SDS011;15917;50.014;8.352;2024-03-07T03:35:13;49.85;;;23.73;;
28760;SDS011;15917;50.014;8.352;2024-03-07T03:37:40;52.13;;;23.38;;
28760;SDS011;15917;50.014;8.352;2024-03-07T03:40:07;48.13;;;22.88;;
28760;SDS011;15917;50.014;8.352;2024-03-07T03:42:35;44.03;;;22.17;;
28760;SDS011;15917;50.014;8.352;2024-03-07T03:45:02;53.78;;;22.77;;
28760;SDS011;15917;50.014;8.352;2024-03-07T03:47:38;47.75;;;22.52;;
28760;SDS011;15917;50.014;8.352;2024-03-07T03:50:07;46.05;;;22.27;;
28760;SDS011;15917;50.014;8.352;2024-03-07T03:52:34;47.88;;;22.55;;
28760;SDS011;15917;50.014;8.352;2024-03-07T03:55:00;45.70;;;22.38;;
28760;SDS011;15917;50.014;8.352;2024-03-07T03:57:27;52.20;;;22.85;;
28760;SDS011;15917;50.014;8.352;2024-03-07T03:59:53;41.88;;;20.65;;
28760;SDS011;15917;50.014;8.352;2024-03-07T04:02:20;48.40;;;22.38;;
28760;SDS011;15917;50.014;8.352;2024-03-07T04:04:47;47.78;;;22.08;;
28760;SDS011;15917;50.014;8.352;2024-03-07T04:07:19;49.38;;;21.67;;
28760;SDS011;15917;50.014;8.352;2024-03-07T04:09:45;46.85;;;22.00;;
28760;SDS011;15917;50.014;8.352;2024-03-07T04:12:12;57.15;;;23.20;;
28760;SDS011;15917;50.014;8.352;2024-03-07T04:14:41;42.28;;;21.73;;
28760;SDS011;15917;50.014;8.352;2024-03-07T04:17:08;43.28;;;20.77;;
28760;SDS011;15917;50.014;8.352;2024-03-07T04:19:40;43.50;;;21.88;;
28760;SDS011;15917;50.014;8.352;2024-03-07T04:22:07;53.33;;;21.17;;
28760;SDS011;15917;50.014;8.352;2024-03-07T04:24:35;41.80;;;20.98;;
28760;SDS011;15917;50.014;8.352;2024-03-07T04:27:01;43.70;;;18.52;;
28760;SDS011;15917;50.014;8.352;2024-03-07T04:29:31;43.83;;;22.45;;
28760;SDS011;15917;50.014;8.352;2024-03-07T04:32:00;39.10;;;20.70;;
28760;SDS011;15917;50.014;8.352;2024-03-07T04:34:30;43.92;;;19.73;;
28760;SDS011;15917;50.014;8.352;2024-03-07T04:36:59;42.42;;;20.00;;
28760;SDS011;15917;50.014;8.352;2024-03-07T04:39:29;46.45;;;21.08;;
28760;SDS011;15917;50.014;8.352;2024-03-07T04:42:00;42.70;;;20.70;;
28760;SDS011;15917;50.014;8.352;2024-03-07T04:44:31;46.97;;;20.48;;
28760;SDS011;15917;50.014;8.352;2024-03-07T04:46:58;39.38;;;20.30;;
28760;SDS011;15917;50.014;8.352;2024-03-07T04:49:26;41.78;;;20.27;;
28760;SDS011;15917;50.014;8.352;2024-03-07T04:51:54;41.60;;;19.42;;
28760;SDS011;15917;50.014;8.352;2024-03-07T04:54:21;41.97;;;20.33;;
28760;SDS011;15917;50.014;8.352;2024-03-07T04:56:48;41.13;;;20.23;;
28760;SDS011;15917;50.014;8.352;2024-03-07T04:59:15;44.90;;;21.48;;
28760;SDS011;15917;50.014;8.352;2024-03-07T05:01:42;45.83;;;19.33;;
28760;SDS011;15917;50.014;8.352;2024-03-07T05:04:09;42.10;;;20.23;;
28760;SDS011;15917;50.014;8.352;2024-03-07T05:06:37;52.88;;;22.95;;
28760;SDS011;15917;50.014;8.352;2024-03-07T05:09:03;43.05;;;21.05;;
28760;SDS011;15917;50.014;8.352;2024-03-07T05:11:34;41.17;;;19.43;;
28760;SDS011;15917;50.014;8.352;2024-03-07T05:14:01;46.15;;;20.42;;
28760;SDS011;15917;50.014;8.352;2024-03-07T05:16:28;50.67;;;21.88;;
28760;SDS011;15917;50.014;8.352;2024-03-07T05:18:54;43.45;;;20.42;;
28760;SDS011;15917;50.014;8.352;2024-03-07T05:21:24;45.13;;;21.13;;
28760;SDS011;15917;50.014;8.352;2024-03-07T05:24:02;46.28;;;21.63;;
28760;SDS011;15917;50.014;8.352;2024-03-07T05:26:29;50.65;;;21.63;;
28760;SDS011;15917;50.014;8.352;2024-03-07T05:29:07;48.88;;;21.05;;
28760;SDS011;15917;50.014;8.352;2024-03-07T05:31:34;45.80;;;21.03;;
28760;SDS011;15917;50.014;8.352;2024-03-07T05:34:02;85.00;;;30.55;;
28760;SDS011;15917;50.014;8.352;2024-03-07T05:36:31;124.28;;;43.63;;
28760;SDS011;15917;50.014;8.352;2024-03-07T05:38:58;133.10;;;42.58;;
28760;SDS011;15917;50.014;8.352;2024-03-07T05:41:24;80.45;;;31.45;;
28760;SDS011;15917;50.014;8.352;2024-03-07T05:43:53;52.42;;;23.50;;
28760;SDS011;15917;50.014;8.352;2024-03-07T05:46:19;54.28;;;23.17;;
28760;SDS011;15917;50.014;8.352;2024-03-07T05:48:45;50.03;;;22.55;;
28760;SDS011;15917;50.014;8.352;2024-03-07T05:51:15;56.10;;;23.85;;
28760;SDS011;15917;50.014;8.352;2024-03-07T05:53:41;59.45;;;23.67;;
28760;SDS011;15917;50.014;8.352;2024-03-07T05:56:07;51.75;;;23.95;;
28760;SDS011;15917;50.014;8.352;2024-03-07T05:58:33;47.45;;;22.77;;
28760;SDS011;15917;50.014;8.352;2024-03-07T06:00:59;52.10;;;23.77;;
28760;SDS011;15917;50.014;8.352;2024-03-07T06:03:24;47.38;;;23.23;;
28760;SDS011;15917;50.014;8.352;2024-03-07T06:05:50;54.53;;;23.65;;
28760;SDS011;15917;50.014;8.352;2024-03-07T06:08:16;51.05;;;24.23;;
28760;SDS011;15917;50.014;8.352;2024-03-07T06:10:43;39.58;;;18.77;;
28760;SDS011;15917;50.014;8.352;2024-03-07T06:13:13;50.97;;;23.65;;
28760;SDS011;15917;50.014;8.352;2024-03-07T06:15:42;50.80;;;26.05;;
28760;SDS011;15917;50.014;8.352;2024-03-07T06:18:09;45.53;;;21.65;;
28760;SDS011;15917;50.014;8.352;2024-03-07T06:20:36;47.25;;;22.17;;
28760;SDS011;15917;50.014;8.352;2024-03-07T06:23:02;46.83;;;22.23;;
28760;SDS011;15917;50.014;8.352;2024-03-07T06:25:31;42.85;;;20.98;;
28760;SDS011;15917;50.014;8.352;2024-03-07T06:28:12;38.13;;;19.42;;
28760;SDS011;15917;50.014;8.352;2024-03-07T06:30:38;45.97;;;22.13;;
28760;SDS011;15917;50.014;8.352;2024-03-07T06:33:05;44.80;;;21.25;;
28760;SDS011;15917;50.014;8.352;2024-03-07T06:35:31;46.17;;;20.83;;
28760;SDS011;15917;50.014;8.352;2024-03-07T06:37:57;40.25;;;20.90;;
28760;SDS011;15917;50.014;8.352;2024-03-07T06:40:22;43.83;;;21.23;;
28760;SDS011;15917;50.014;8.352;2024-03-07T06:42:48;45.33;;;20.77;;
28760;SDS011;15917;50.014;8.352;2024-03-07T06:45:14;49.50;;;21.20;;
28760;SDS011;15917;50.014;8.352;2024-03-07T06:47:41;45.55;;;20.33;;
28760;SDS011;15917;50.014;8.352;2024-03-07T06:50:06;42.97;;;19.65;;
28760;SDS011;15917;50.014;8.352;2024-03-07T06:55:01;45.53;;;19.63;;
28760;SDS011;15917;50.014;8.352;2024-03-07T06:57:28;41.47;;;19.45;;
28760;SDS011;15917;50.014;8.352;2024-03-07T06:59:54;40.22;;;19.08;;
28760;SDS011;15917;50.014;8.352;2024-03-07T07:02:20;40.75;;;19.88;;
28760;SDS011;15917;50.014;8.352;2024-03-07T07:04:46;45.58;;;20.25;;
28760;SDS011;15917;50.014;8.352;2024-03-07T07:07:12;43.90;;;20.27;;
28760;SDS011;15917;50.014;8.352;2024-03-07T07:09:39;49.97;;;20.67;;
28760;SDS011;15917;50.014;8.352;2024-03-07T07:12:05;44.50;;;20.25;;
28760;SDS011;15917;50.014;8.352;2024-03-07T07:14:31;46.60;;;19.02;;
28760;SDS011;15917;50.014;8.352;2024-03-07T07:16:57;39.30;;;19.48;;
28760;SDS011;15917;50.014;8.352;2024-03-07T07:19:24;38.75;;;20.20;;
28760;SDS011;15917;50.014;8.352;2024-03-07T07:21:50;47.80;;;21.48;;
28760;SDS011;15917;50.014;8.352;2024-03-07T07:24:18;43.22;;;21.48;;
28760;SDS011;15917;50.014;8.352;2024-03-07T07:26:48;47.78;;;20.88;;
28760;SDS011;15917;50.014;8.352;2024-03-07T07:29:15;41.55;;;20.17;;
28760;SDS011;15917;50.014;8.352;2024-03-07T07:31:41;43.90;;;20.88;;
28760;SDS011;15917;50.014;8.352;2024-03-07T07:34:06;44.80;;;21.35;;
28760;SDS011;15917;50.014;8.352;2024-03-07T07:36:32;49.80;;;22.20;;
28760;SDS011;15917;50.014;8.352;2024-03-07T07:38:58;53.17;;;22.13;;
28760;SDS011;15917;50.014;8.352;2024-03-07T07:41:24;49.25;;;22.58;;
28760;SDS011;15917;50.014;8.352;2024-03-07T07:43:49;50.97;;;23.52;;
28760;SDS011;15917;50.014;8.352;2024-03-07T07:46:16;45.63;;;22.65;;
28760;SDS011;15917;50.014;8.352;2024-03-07T07:48:43;42.55;;;22.52;;
28760;SDS011;15917;50.014;8.352;2024-03-07T07:51:09;48.10;;;22.38;;
28760;SDS011;15917;50.014;8.352;2024-03-07T07:53:34;52.42;;;23.88;;
28760;SDS011;15917;50.014;8.352;2024-03-07T07:56:00;48.15;;;23.17;;
28760;SDS011;15917;50.014;8.352;2024-03-07T07:58:26;48.83;;;23.70;;
28760;SDS011;15917;50.014;8.352;2024-03-07T08:00:51;54.22;;;22.98;;
28760;SDS011;15917;50.014;8.352;2024-03-07T08:03:17;49.90;;;21.75;;
28760;SDS011;15917;50.014;8.352;2024-03-07T08:05:43;50.03;;;23.25;;
28760;SDS011;15917;50.014;8.352;2024-03-07T08:08:12;50.42;;;22.73;;
28760;SDS011;15917;50.014;8.352;2024-03-07T08:10:41;46.13;;;23.35;;
28760;SDS011;15917;50.014;8.352;2024-03-07T08:13:07;44.33;;;22.88;;
28760;SDS011;15917;50.014;8.352;2024-03-07T08:15:35;55.85;;;25.40;;
28760;SDS011;15917;50.014;8.352;2024-03-07T08:18:01;53.65;;;23.15;;
28760;SDS011;15917;50.014;8.352;2024-03-07T08:20:27;44.65;;;23.02;;
28760;SDS011;15917;50.014;8.352;2024-03-07T08:22:54;44.28;;;21.17;;
28760;SDS011;15917;50.014;8.352;2024-03-07T08:25:21;48.30;;;22.55;;
28760;SDS011;15917;50.014;8.352;2024-03-07T08:27:50;39.28;;;20.92;;
28760;SDS011;15917;50.014;8.352;2024-03-07T08:30:17;45.55;;;21.08;;
28760;SDS011;15917;50.014;8.352;2024-03-07T08:32:50;45.20;;;20.48;;
28760;SDS011;15917;50.014;8.352;2024-03-07T08:35:17;43.40;;;20.85;;
28760;SDS011;15917;50.014;8.352;2024-03-07T08:37:44;36.78;;;18.40;;
28760;SDS011;15917;50.014;8.352;2024-03-07T08:40:10;32.25;;;17.20;;
28760;SDS011;15917;50.014;8.352;2024-03-07T08:42:44;32.88;;;16.73;;
28760;SDS011;15917;50.014;8.352;2024-03-07T08:45:11;31.57;;;16.37;;
28760;SDS011;15917;50.014;8.352;2024-03-07T08:47:37;37.42;;;18.08;;
28760;SDS011;15917;50.014;8.352;2024-03-07T08:50:03;31.80;;;16.60;;
28760;SDS011;15917;50.014;8.352;2024-03-07T08:52:33;30.50;;;15.75;;
28760;SDS011;15917;50.014;8.352;2024-03-07T08:55:03;29.27;;;16.30;;
28760;SDS011;15917;50.014;8.352;2024-03-07T08:57:29;27.30;;;14.55;;
28760;SDS011;15917;50.014;8.352;2024-03-07T08:59:55;31.73;;;15.65;;
28760;SDS011;15917;50.014;8.352;2024-03-07T09:02:21;38.53;;;20.92;;
28760;SDS011;15917;50.014;8.352;2024-03-07T09:04:47;33.05;;;17.40;;
28760;SDS011;15917;50.014;8.352;2024-03-07T09:07:13;34.55;;;16.90;;
28760;SDS011;15917;50.014;8.352;2024-03-07T09:09:40;32.15;;;17.05;;
28760;SDS011;15917;50.014;8.352;2024-03-07T09:12:08;33.88;;;17.50;;
28760;SDS011;15917;50.014;8.352;2024-03-07T09:14:34;39.13;;;18.48;;
28760;SDS011;15917;50.014;8.352;2024-03-07T09:17:00;33.10;;;16.30;;
28760;SDS011;15917;50.014;8.352;2024-03-07T09:19:26;35.08;;;17.05;;
28760;SDS011;15917;50.014;8.352;2024-03-07T09:21:53;37.63;;;17.65;;
28760;SDS011;15917;50.014;8.352;2024-03-07T09:24:19;38.13;;;19.77;;
28760;SDS011;15917;50.014;8.352;2024-03-07T09:26:51;42.03;;;19.80;;
28760;SDS011;15917;50.014;8.352;2024-03-07T09:29:17;34.88;;;17.88;;
28760;SDS011;15917;50.014;8.352;2024-03-07T09:31:48;46.60;;;20.23;;
28760;SDS011;15917;50.014;8.352;2024-03-07T09:34:17;42.50;;;19.02;;
28760;SDS011;15917;50.014;8.352;2024-03-07T09:36:43;39.67;;;18.48;;
28760;SDS011;15917;50.014;8.352;2024-03-07T09:39:09;43.95;;;22.75;;
28760;SDS011;15917;50.014;8.352;2024-03-07T09:41:37;43.75;;;22.13;;
28760;SDS011;15917;50.014;8.352;2024-03-07T09:44:04;42.13;;;19.70;;
28760;SDS011;15917;50.014;8.352;2024-03-07T09:46:31;59.65;;;26.02;;
28760;SDS011;15917;50.014;8.352;2024-03-07T09:49:00;46.50;;;22.05;;
28760;SDS011;15917;50.014;8.352;2024-03-07T09:51:26;44.85;;;21.83;;
28760;SDS011;15917;50.014;8.352;2024-03-07T09:53:53;44.42;;;20.10;;
28760;SDS011;15917;50.014;8.352;2024-03-07T09:56:22;38.67;;;20.55;;
28760;SDS011;15917;50.014;8.352;2024-03-07T09:58:51;34.33;;;17.58;;
28760;SDS011;15917;50.014;8.352;2024-03-07T10:01:19;37.15;;;17.50;;
28760;SDS011;15917;50.014;8.352;2024-03-07T10:03:48;39.47;;;17.80;;
28760;SDS011;15917;50.014;8.352;2024-03-07T10:06:19;39.20;;;17.55;;
28760;SDS011;15917;50.014;8.352;2024-03-07T10:08:47;32.40;;;16.58;;
28760;SDS011;15917;50.014;8.352;2024-03-07T10:11:13;36.25;;;16.83;;
28760;SDS011;15917;50.014;8.352;2024-03-07T10:13:39;33.85;;;18.25;;
28760;SDS011;15917;50.014;8.352;2024-03-07T10:16:06;30.75;;;16.67;;
28760;SDS011;15917;50.014;8.352;2024-03-07T10:18:33;36.92;;;18.00;;
28760;SDS011;15917;50.014;8.352;2024-03-07T10:21:06;38.53;;;17.58;;
28760;SDS011;15917;50.014;8.352;2024-03-07T10:23:32;38.83;;;17.40;;
28760;SDS011;15917;50.014;8.352;2024-03-07T10:25:59;31.27;;;16.80;;
28760;SDS011;15917;50.014;8.352;2024-03-07T10:28:26;34.25;;;16.65;;
28760;SDS011;15917;50.014;8.352;2024-03-07T10:30:53;31.60;;;16.92;;
28760;SDS011;15917;50.014;8.352;2024-03-07T10:33:19;35.45;;;18.45;;
28760;SDS011;15917;50.014;8.352;2024-03-07T10:35:48;41.50;;;19.17;;
28760;SDS011;15917;50.014;8.352;2024-03-07T10:38:15;35.63;;;18.38;;
28760;SDS011;15917;50.014;8.352;2024-03-07T10:40:43;37.38;;;18.67;;
28760;SDS011;15917;50.014;8.352;2024-03-07T10:43:12;41.38;;;20.55;;
28760;SDS011;15917;50.014;8.352;2024-03-07T10:45:48;41.03;;;20.15;;
28760;SDS011;15917;50.014;8.352;2024-03-07T10:48:17;61.20;;;26.95;;
28760;SDS011;15917;50.014;8.352;2024-03-07T10:51:06;37.85;;;19.73;;
28760;SDS011;15917;50.014;8.352;2024-03-07T10:53:52;34.65;;;17.55;;
28760;SDS011;15917;50.014;8.352;2024-03-07T10:59:27;36.53;;;17.25;;
28760;SDS011;15917;50.014;8.352;2024-03-07T11:02:07;34.33;;;16.27;;
28760;SDS011;15917;50.014;8.352;2024-03-07T11:04:45;35.60;;;17.58;;
28760;SDS011;15917;50.014;8.352;2024-03-07T11:07:13;39.67;;;17.08;;
28760;SDS011;15917;50.014;8.352;2024-03-07T11:09:39;37.13;;;18.38;;
28760;SDS011;15917;50.014;8.352;2024-03-07T11:12:07;31.77;;;17.23;;
28760;SDS011;15917;50.014;8.352;2024-03-07T11:14:35;34.67;;;17.85;;
28760;SDS011;15917;50.014;8.352;2024-03-07T11:17:03;32.65;;;17.92;;
28760;SDS011;15917;50.014;8.352;2024-03-07T11:19:33;34.03;;;17.45;;
28760;SDS011;15917;50.014;8.352;2024-03-07T11:22:02;37.53;;;17.38;;
28760;SDS011;15917;50.014;8.352;2024-03-07T11:24:39;35.08;;;17.77;;
28760;SDS011;15917;50.014;8.352;2024-03-07T11:27:04;29.27;;;15.70;;
28760;SDS011;15917;50.014;8.352;2024-03-07T11:29:49;31.08;;;16.70;;
28760;SDS011;15917;50.014;8.352;2024-03-07T11:32:18;36.38;;;17.83;;
28760;SDS011;15917;50.014;8.352;2024-03-07T11:34:47;32.15;;;17.13;;
28760;SDS011;15917;50.014;8.352;2024-03-07T11:40:11;35.47;;;16.85;;
28760;SDS011;15917;50.014;8.352;2024-03-07T11:42:44;32.63;;;17.00;;
28760;SDS011;15917;50.014;8.352;2024-03-07T11:45:13;38.70;;;17.40;;
28760;SDS011;15917;50.014;8.352;2024-03-07T11:47:53;31.75;;;16.27;;
28760;SDS011;15917;50.014;8.352;2024-03-07T11:50:37;29.30;;;16.77;;
28760;SDS011;15917;50.014;8.352;2024-03-07T11:53:05;33.58;;;17.27;;
28760;SDS011;15917;50.014;8.352;2024-03-07T11:55:32;32.13;;;16.17;;
28760;SDS011;15917;50.014;8.352;2024-03-07T11:58:10;28.58;;;17.10;;
28760;SDS011;15917;50.014;8.352;2024-03-07T12:00:45;31.73;;;17.77;;
28760;SDS011;15917;50.014;8.352;2024-03-07T12:03:11;29.50;;;16.70;;
28760;SDS011;15917;50.014;8.352;2024-03-07T12:05:39;30.65;;;16.10;;
28760;SDS011;15917;50.014;8.352;2024-03-07T12:08:06;44.13;;;20.38;;
28760;SDS011;15917;50.014;8.352;2024-03-07T12:10:31;36.63;;;17.85;;
28760;SDS011;15917;50.014;8.352;2024-03-07T12:12:59;40.22;;;18.77;;
28760;SDS011;15917;50.014;8.352;2024-03-07T12:15:26;43.63;;;19.85;;
28760;SDS011;15917;50.014;8.352;2024-03-07T12:17:53;32.95;;;17.55;;
28760;SDS011;15917;50.014;8.352;2024-03-07T12:20:19;34.70;;;18.67;;
28760;SDS011;15917;50.014;8.352;2024-03-07T12:22:56;34.15;;;17.00;;
28760;SDS011;15917;50.014;8.352;2024-03-07T12:25:22;31.92;;;16.40;;
28760;SDS011;15917;50.014;8.352;2024-03-07T12:28:08;26.80;;;14.82;;
28760;SDS011;15917;50.014;8.352;2024-03-07T12:30:37;30.35;;;15.40;;
28760;SDS011;15917;50.014;8.352;2024-03-07T12:33:16;30.65;;;15.93;;
28760;SDS011;15917;50.014;8.352;2024-03-07T12:35:43;30.40;;;16.43;;
28760;SDS011;15917;50.014;8.352;2024-03-07T12:38:10;26.58;;;15.45;;
28760;SDS011;15917;50.014;8.352;2024-03-07T12:40:36;29.33;;;16.05;;
28760;SDS011;15917;50.014;8.352;2024-03-07T12:43:12;32.60;;;15.52;;
28760;SDS011;15917;50.014;8.352;2024-03-07T12:45:43;29.30;;;15.05;;
28760;SDS011;15917;50.014;8.352;2024-03-07T12:48:16;24.63;;;14.05;;
28760;SDS011;15917;50.014;8.352;2024-03-07T12:50:44;31.80;;;14.43;;
28760;SDS011;15917;50.014;8.352;2024-03-07T12:53:10;22.55;;;13.30;;
28760;SDS011;15917;50.014;8.352;2024-03-07T12:55:40;24.30;;;14.23;;
28760;SDS011;15917;50.014;8.352;2024-03-07T12:58:11;23.35;;;12.80;;
28760;SDS011;15917;50.014;8.352;2024-03-07T13:00:40;25.50;;;13.00;;
28760;SDS011;15917;50.014;8.352;2024-03-07T13:03:09;28.52;;;12.93;;
28760;SDS011;15917;50.014;8.352;2024-03-07T13:05:36;21.17;;;12.23;;
28760;SDS011;15917;50.014;8.352;2024-03-07T13:08:05;21.77;;;11.52;;
28760;SDS011;15917;50.014;8.352;2024-03-07T13:10:36;29.85;;;14.40;;
28760;SDS011;15917;50.014;8.352;2024-03-07T13:13:06;23.55;;;11.73;;
28760;SDS011;15917;50.014;8.352;2024-03-07T13:15:31;25.08;;;12.48;;
28760;SDS011;15917;50.014;8.352;2024-03-07T13:17:57;28.70;;;11.80;;
28760;SDS011;15917;50.014;8.352;2024-03-07T13:20:22;26.13;;;12.25;;
28760;SDS011;15917;50.014;8.352;2024-03-07T13:22:51;23.30;;;10.80;;
28760;SDS011;15917;50.014;8.352;2024-03-07T13:25:22;23.40;;;11.77;;
28760;SDS011;15917;50.014;8.352;2024-03-07T13:27:58;25.15;;;12.18;;
28760;SDS011;15917;50.014;8.352;2024-03-07T13:30:49;33.58;;;13.35;;
28760;SDS011;15917;50.014;8.352;2024-03-07T13:33:15;30.05;;;13.07;;
28760;SDS011;15917;50.014;8.352;2024-03-07T13:35:41;28.85;;;14.32;;
28760;SDS011;15917;50.014;8.352;2024-03-07T13:38:07;26.48;;;12.32;;
28760;SDS011;15917;50.014;8.352;2024-03-07T13:40:33;24.65;;;12.75;;
28760;SDS011;15917;50.014;8.352;2024-03-07T13:43:05;33.78;;;13.38;;
28760;SDS011;15917;50.014;8.352;2024-03-07T13:45:35;27.60;;;12.38;;
28760;SDS011;15917;50.014;8.352;2024-03-07T13:48:08;22.85;;;11.75;;
28760;SDS011;15917;50.014;8.352;2024-03-07T13:50:35;30.20;;;12.00;;
28760;SDS011;15917;50.014;8.352;2024-03-07T13:53:09;24.38;;;11.80;;
28760;SDS011;15917;50.014;8.352;2024-03-07T14:01:51;18.27;;;9.60;;
28760;SDS011;15917;50.014;8.352;2024-03-07T14:19:43;20.27;;;9.65;;
28760;SDS011;15917;50.014;8.352;2024-03-07T14:29:47;18.63;;;9.63;;
28760;SDS011;15917;50.014;8.352;2024-03-07T14:31:52;15.65;;;8.32;;
28760;SDS011;15917;50.014;8.352;2024-03-07T14:36:56;16.40;;;9.02;;
28760;SDS011;15917;50.014;8.352;2024-03-07T14:39:29;20.02;;;9.30;;
28760;SDS011;15917;50.014;8.352;2024-03-07T14:42:04;16.88;;;9.25;;
28760;SDS011;15917;50.014;8.352;2024-03-07T14:44:35;15.10;;;8.43;;
28760;SDS011;15917;50.014;8.352;2024-03-07T14:47:05;15.40;;;8.45;;
28760;SDS011;15917;50.014;8.352;2024-03-07T14:49:33;16.73;;;8.90;;
28760;SDS011;15917;50.014;8.352;2024-03-07T14:51:59;16.77;;;8.23;;
28760;SDS011;15917;50.014;8.352;2024-03-07T14:54:26;15.98;;;8.18;;
28760;SDS011;15917;50.014;8.352;2024-03-07T14:56:52;18.15;;;8.43;;
28760;SDS011;15917;50.014;8.352;2024-03-07T14:59:17;17.38;;;7.95;;
28760;SDS011;15917;50.014;8.352;2024-03-07T15:01:43;16.45;;;8.10;;
28760;SDS011;15917;50.014;8.352;2024-03-07T15:04:09;17.25;;;8.52;;
28760;SDS011;15917;50.014;8.352;2024-03-07T15:06:39;21.77;;;10.40;;
28760;SDS011;15917;50.014;8.352;2024-03-07T15:09:05;22.17;;;10.30;;
28760;SDS011;15917;50.014;8.352;2024-03-07T15:11:38;28.52;;;11.77;;